sensor_id;sensor_type;location;lat;lon;timestamp;temperature;humidity
56044;DHT22;41912;51.022;3.664;2023-12-14T00:00:47;10.40;99.90
56044;DHT22;41912;51.022;3.664;2023-12-14T00:03:13;10.40;99.90
56044;DHT22;41912;51.022;3.664;2023-12-14T00:05:38;10.40;99.90
56044;DHT22;41912;51.022;3.664;2023-12-14T00:08:04;10.40;99.90
56044;DHT22;41912;51.022;3.664;2023-12-14T00:10:29;10.40;99.90
56044;DHT22;41912;51.022;3.664;2023-12-14T00:12:55;10.40;99.90
56044;DHT22;41912;51.022;3.664;2023-12-14T00:15:21;10.40;99.90
56044;DHT22;41912;51.022;3.664;2023-12-14T00:17:47;10.40;99.90
56044;DHT22;41912;51.022;3.664;2023-12-14T00:20:12;10.40;99.90
56044;DHT22;41912;51.022;3.664;2023-12-14T00:22:38;10.40;99.90
56044;DHT22;41912;51.022;3.664;2023-12-14T00:25:05;10.50;99.90
56044;DHT22;41912;51.022;3.664;2023-12-14T00:27:31;10.40;99.90
56044;DHT22;41912;51.022;3.664;2023-12-14T00:29:56;10.50;99.90
56044;DHT22;41912;51.022;3.664;2023-12-14T00:32:22;10.40;99.90
56044;DHT22;41912;51.022;3.664;2023-12-14T00:34:47;10.40;99.90
56044;DHT22;41912;51.022;3.664;2023-12-14T00:37:14;10.40;99.90
56044;DHT22;41912;51.022;3.664;2023-12-14T00:39:40;10.40;99.90
56044;DHT22;41912;51.022;3.664;2023-12-14T00:42:05;10.40;99.90
56044;DHT22;41912;51.022;3.664;2023-12-14T00:44:31;10.30;99.90
56044;DHT22;41912;51.022;3.664;2023-12-14T00:46:57;10.30;99.90
56044;DHT22;41912;51.022;3.664;2023-12-14T00:49:23;10.30;99.90
56044;DHT22;41912;51.022;3.664;2023-12-14T00:51:49;10.20;99.90
56044;DHT22;41912;51.022;3.664;2023-12-14T00:54:15;10.30;99.90
56044;DHT22;41912;51.022;3.664;2023-12-14T00:56:40;10.20;99.90
56044;DHT22;41912;51.022;3.664;2023-12-14T00:59:06;10.20;99.90
56044;DHT22;41912;51.022;3.664;2023-12-14T01:01:32;10.20;99.90
56044;DHT22;41912;51.022;3.664;2023-12-14T01:03:58;10.20;99.90
56044;DHT22;41912;51.022;3.664;2023-12-14T01:06:24;10.10;99.90
56044;DHT22;41912;51.022;3.664;2023-12-14T01:08:50;10.10;99.90
56044;DHT22;41912;51.022;3.664;2023-12-14T01:11:16;10.10;99.90
56044;DHT22;41912;51.022;3.664;2023-12-14T01:13:41;10.10;99.90
56044;DHT22;41912;51.022;3.664;2023-12-14T01:16:07;10.10;99.90
56044;DHT22;41912;51.022;3.664;2023-12-14T01:18:33;10.00;99.90
56044;DHT22;41912;51.022;3.664;2023-12-14T01:20:59;10.00;99.90
56044;DHT22;41912;51.022;3.664;2023-12-14T01:23:24;10.00;99.90
56044;DHT22;41912;51.022;3.664;2023-12-14T01:25:50;9.90;99.90
56044;DHT22;41912;51.022;3.664;2023-12-14T01:28:15;9.90;99.90
56044;DHT22;41912;51.022;3.664;2023-12-14T01:30:41;9.90;99.90
56044;DHT22;41912;51.022;3.664;2023-12-14T01:33:07;9.90;99.90
56044;DHT22;41912;51.022;3.664;2023-12-14T01:35:32;9.90;99.90
56044;DHT22;41912;51.022;3.664;2023-12-14T01:37:58;9.90;99.90
56044;DHT22;41912;51.022;3.664;2023-12-14T01:40:23;9.80;99.90
56044;DHT22;41912;51.022;3.664;2023-12-14T01:42:49;9.90;99.90
56044;DHT22;41912;51.022;3.664;2023-12-14T01:45:15;9.80;99.90
56044;DHT22;41912;51.022;3.664;2023-12-14T01:47:42;9.70;99.90
56044;DHT22;41912;51.022;3.664;2023-12-14T01:50:08;9.80;99.90
56044;DHT22;41912;51.022;3.664;2023-12-14T01:52:34;9.70;99.90
56044;DHT22;41912;51.022;3.664;2023-12-14T01:54:59;9.70;99.90
56044;DHT22;41912;51.022;3.664;2023-12-14T01:57:25;9.60;99.90
56044;DHT22;41912;51.022;3.664;2023-12-14T01:59:50;9.60;99.90
56044;DHT22;41912;51.022;3.664;2023-12-14T02:02:16;9.60;99.90
56044;DHT22;41912;51.022;3.664;2023-12-14T02:04:42;9.50;99.90
56044;DHT22;41912;51.022;3.664;2023-12-14T02:07:07;9.50;99.90
56044;DHT22;41912;51.022;3.664;2023-12-14T02:09:33;9.40;99.90
56044;DHT22;41912;51.022;3.664;2023-12-14T02:11:58;9.40;99.90
56044;DHT22;41912;51.022;3.664;2023-12-14T02:14:24;9.40;99.90
56044;DHT22;41912;51.022;3.664;2023-12-14T02:16:50;9.40;99.90
56044;DHT22;41912;51.022;3.664;2023-12-14T02:19:15;9.30;99.90
56044;DHT22;41912;51.022;3.664;2023-12-14T02:21:41;9.30;99.90
56044;DHT22;41912;51.022;3.664;2023-12-14T02:24:07;9.30;99.90
56044;DHT22;41912;51.022;3.664;2023-12-14T02:26:32;9.30;99.90
56044;DHT22;41912;51.022;3.664;2023-12-14T02:28:58;9.30;99.90
56044;DHT22;41912;51.022;3.664;2023-12-14T02:31:23;9.20;99.90
56044;DHT22;41912;51.022;3.664;2023-12-14T02:33:49;9.20;99.90
56044;DHT22;41912;51.022;3.664;2023-12-14T02:36:15;9.20;99.90
56044;DHT22;41912;51.022;3.664;2023-12-14T02:38:40;9.20;99.90
56044;DHT22;41912;51.022;3.664;2023-12-14T02:41:06;9.10;99.90
56044;DHT22;41912;51.022;3.664;2023-12-14T02:43:31;9.20;99.90
56044;DHT22;41912;51.022;3.664;2023-12-14T02:45:58;9.20;99.90
56044;DHT22;41912;51.022;3.664;2023-12-14T02:48:28;9.10;99.90
56044;DHT22;41912;51.022;3.664;2023-12-14T02:50:55;9.10;99.90
56044;DHT22;41912;51.022;3.664;2023-12-14T02:53:20;9.10;99.90
56044;DHT22;41912;51.022;3.664;2023-12-14T02:55:46;9.10;99.90
56044;DHT22;41912;51.022;3.664;2023-12-14T02:58:12;9.10;99.90
56044;DHT22;41912;51.022;3.664;2023-12-14T03:00:37;9.10;99.90
56044;DHT22;41912;51.022;3.664;2023-12-14T03:03:03;9.00;99.90
56044;DHT22;41912;51.022;3.664;2023-12-14T03:05:29;9.00;99.90
56044;DHT22;41912;51.022;3.664;2023-12-14T03:07:54;9.00;99.90
56044;DHT22;41912;51.022;3.664;2023-12-14T03:10:20;9.00;99.90
56044;DHT22;41912;51.022;3.664;2023-12-14T03:12:45;9.00;99.90
56044;DHT22;41912;51.022;3.664;2023-12-14T03:15:11;9.00;99.90
56044;DHT22;41912;51.022;3.664;2023-12-14T03:17:36;9.00;99.90
56044;DHT22;41912;51.022;3.664;2023-12-14T03:20:02;9.00;99.90
56044;DHT22;41912;51.022;3.664;2023-12-14T03:22:30;9.00;99.90
56044;DHT22;41912;51.022;3.664;2023-12-14T03:24:56;9.00;99.90
56044;DHT22;41912;51.022;3.664;2023-12-14T03:27:21;9.00;99.90
56044;DHT22;41912;51.022;3.664;2023-12-14T03:29:48;9.00;99.90
56044;DHT22;41912;51.022;3.664;2023-12-14T03:32:14;9.00;99.90
56044;DHT22;41912;51.022;3.664;2023-12-14T03:34:39;9.00;99.90
56044;DHT22;41912;51.022;3.664;2023-12-14T03:37:06;9.00;99.90
56044;DHT22;41912;51.022;3.664;2023-12-14T03:39:32;9.00;99.90
56044;DHT22;41912;51.022;3.664;2023-12-14T03:41:57;8.90;99.90
56044;DHT22;41912;51.022;3.664;2023-12-14T03:44:23;8.90;99.90
56044;DHT22;41912;51.022;3.664;2023-12-14T03:46:49;8.90;99.90
56044;DHT22;41912;51.022;3.664;2023-12-14T03:49:15;8.90;99.90
56044;DHT22;41912;51.022;3.664;2023-12-14T03:51:41;8.90;99.90
56044;DHT22;41912;51.022;3.664;2023-12-14T03:54:06;8.90;99.90
56044;DHT22;41912;51.022;3.664;2023-12-14T03:56:32;8.90;99.90
56044;DHT22;41912;51.022;3.664;2023-12-14T03:58:58;8.70;99.90
56044;DHT22;41912;51.022;3.664;2023-12-14T04:01:23;8.90;99.90
56044;DHT22;41912;51.022;3.664;2023-12-14T04:03:49;8.90;99.90
56044;DHT22;41912;51.022;3.664;2023-12-14T04:06:15;8.90;99.90
56044;DHT22;41912;51.022;3.664;2023-12-14T04:08:41;8.90;99.90
56044;DHT22;41912;51.022;3.664;2023-12-14T04:11:07;8.90;99.90
56044;DHT22;41912;51.022;3.664;2023-12-14T04:13:33;8.90;99.90
56044;DHT22;41912;51.022;3.664;2023-12-14T04:15:59;8.80;99.90
56044;DHT22;41912;51.022;3.664;2023-12-14T04:18:25;8.80;99.90
56044;DHT22;41912;51.022;3.664;2023-12-14T04:20:51;8.80;99.90
56044;DHT22;41912;51.022;3.664;2023-12-14T04:23:16;8.90;99.90
56044;DHT22;41912;51.022;3.664;2023-12-14T04:25:42;8.90;99.90
56044;DHT22;41912;51.022;3.664;2023-12-14T04:28:07;8.90;99.90
56044;DHT22;41912;51.022;3.664;2023-12-14T04:30:33;8.90;99.90
56044;DHT22;41912;51.022;3.664;2023-12-14T04:32:59;8.90;99.90
56044;DHT22;41912;51.022;3.664;2023-12-14T04:35:24;8.80;99.90
56044;DHT22;41912;51.022;3.664;2023-12-14T04:37:50;8.80;99.90
56044;DHT22;41912;51.022;3.664;2023-12-14T04:40:16;8.80;99.90
56044;DHT22;41912;51.022;3.664;2023-12-14T04:42:41;8.80;99.90
56044;DHT22;41912;51.022;3.664;2023-12-14T04:45:07;8.80;99.90
56044;DHT22;41912;51.022;3.664;2023-12-14T04:47:36;8.80;99.90
56044;DHT22;41912;51.022;3.664;2023-12-14T04:50:02;8.80;99.90
56044;DHT22;41912;51.022;3.664;2023-12-14T04:52:28;8.80;99.90
56044;DHT22;41912;51.022;3.664;2023-12-14T04:54:54;8.80;99.90
56044;DHT22;41912;51.022;3.664;2023-12-14T04:57:19;8.80;99.90
56044;DHT22;41912;51.022;3.664;2023-12-14T04:59:45;8.80;99.90
56044;DHT22;41912;51.022;3.664;2023-12-14T05:02:11;8.80;99.90
56044;DHT22;41912;51.022;3.664;2023-12-14T05:04:36;8.80;99.90
56044;DHT22;41912;51.022;3.664;2023-12-14T05:07:02;8.80;99.90
56044;DHT22;41912;51.022;3.664;2023-12-14T05:09:27;8.80;99.90
56044;DHT22;41912;51.022;3.664;2023-12-14T05:11:53;8.80;99.90
56044;DHT22;41912;51.022;3.664;2023-12-14T05:14:19;8.80;99.90
56044;DHT22;41912;51.022;3.664;2023-12-14T05:16:45;8.80;99.90
56044;DHT22;41912;51.022;3.664;2023-12-14T05:19:10;8.80;99.90
56044;DHT22;41912;51.022;3.664;2023-12-14T05:21:37;8.80;99.90
56044;DHT22;41912;51.022;3.664;2023-12-14T05:24:03;8.80;99.90
56044;DHT22;41912;51.022;3.664;2023-12-14T05:26:29;8.80;99.90
56044;DHT22;41912;51.022;3.664;2023-12-14T05:28:54;8.80;99.90
56044;DHT22;41912;51.022;3.664;2023-12-14T05:31:20;8.80;99.90
56044;DHT22;41912;51.022;3.664;2023-12-14T05:33:46;8.80;99.90
56044;DHT22;41912;51.022;3.664;2023-12-14T05:36:11;8.80;99.90
56044;DHT22;41912;51.022;3.664;2023-12-14T05:38:41;8.80;99.90
56044;DHT22;41912;51.022;3.664;2023-12-14T05:41:07;8.80;99.90
56044;DHT22;41912;51.022;3.664;2023-12-14T05:43:32;8.90;99.90
56044;DHT22;41912;51.022;3.664;2023-12-14T05:45:58;8.80;99.90
56044;DHT22;41912;51.022;3.664;2023-12-14T05:48:24;8.80;99.90
56044;DHT22;41912;51.022;3.664;2023-12-14T05:50:52;8.80;99.90
56044;DHT22;41912;51.022;3.664;2023-12-14T05:53:18;8.90;99.90
56044;DHT22;41912;51.022;3.664;2023-12-14T05:55:43;8.80;99.90
56044;DHT22;41912;51.022;3.664;2023-12-14T05:58:09;8.80;99.90
56044;DHT22;41912;51.022;3.664;2023-12-14T06:00:35;8.80;99.90
56044;DHT22;41912;51.022;3.664;2023-12-14T06:03:01;8.80;99.90
56044;DHT22;41912;51.022;3.664;2023-12-14T06:05:27;8.80;99.90
56044;DHT22;41912;51.022;3.664;2023-12-14T06:07:53;8.80;99.90
56044;DHT22;41912;51.022;3.664;2023-12-14T06:10:18;8.70;99.90
56044;DHT22;41912;51.022;3.664;2023-12-14T06:12:44;8.70;99.90
56044;DHT22;41912;51.022;3.664;2023-12-14T06:15:10;8.70;99.90
56044;DHT22;41912;51.022;3.664;2023-12-14T06:17:36;8.70;99.90
56044;DHT22;41912;51.022;3.664;2023-12-14T06:20:05;8.70;99.90
56044;DHT22;41912;51.022;3.664;2023-12-14T06:22:31;8.70;99.90
56044;DHT22;41912;51.022;3.664;2023-12-14T06:24:58;8.70;99.90
56044;DHT22;41912;51.022;3.664;2023-12-14T06:27:23;8.70;99.90
56044;DHT22;41912;51.022;3.664;2023-12-14T06:29:52;8.70;99.90
56044;DHT22;41912;51.022;3.664;2023-12-14T06:32:17;8.70;99.90
56044;DHT22;41912;51.022;3.664;2023-12-14T06:34:43;8.70;99.90
56044;DHT22;41912;51.022;3.664;2023-12-14T06:37:09;8.70;99.90
56044;DHT22;41912;51.022;3.664;2023-12-14T06:39:34;8.80;99.90
56044;DHT22;41912;51.022;3.664;2023-12-14T06:42:01;8.80;99.90
56044;DHT22;41912;51.022;3.664;2023-12-14T06:44:26;8.70;99.90
56044;DHT22;41912;51.022;3.664;2023-12-14T06:46:53;8.80;99.90
56044;DHT22;41912;51.022;3.664;2023-12-14T06:49:20;8.80;99.90
56044;DHT22;41912;51.022;3.664;2023-12-14T06:51:46;8.70;99.90
56044;DHT22;41912;51.022;3.664;2023-12-14T06:54:11;8.80;99.90
56044;DHT22;41912;51.022;3.664;2023-12-14T06:56:37;8.80;99.90
56044;DHT22;41912;51.022;3.664;2023-12-14T06:59:03;8.80;99.90
56044;DHT22;41912;51.022;3.664;2023-12-14T07:01:28;8.80;99.90
56044;DHT22;41912;51.022;3.664;2023-12-14T07:03:54;8.80;99.90
56044;DHT22;41912;51.022;3.664;2023-12-14T07:06:20;8.80;99.90
56044;DHT22;41912;51.022;3.664;2023-12-14T07:08:46;8.80;99.90
56044;DHT22;41912;51.022;3.664;2023-12-14T07:11:13;8.80;99.90
56044;DHT22;41912;51.022;3.664;2023-12-14T07:13:39;8.70;99.90
56044;DHT22;41912;51.022;3.664;2023-12-14T07:16:09;8.70;99.90
56044;DHT22;41912;51.022;3.664;2023-12-14T07:18:37;8.80;99.90
56044;DHT22;41912;51.022;3.664;2023-12-14T07:21:03;8.80;99.90
56044;DHT22;41912;51.022;3.664;2023-12-14T07:23:29;8.80;99.90
56044;DHT22;41912;51.022;3.664;2023-12-14T07:25:55;8.70;99.90
56044;DHT22;41912;51.022;3.664;2023-12-14T07:28:21;8.70;99.90
56044;DHT22;41912;51.022;3.664;2023-12-14T07:30:47;8.70;99.90
56044;DHT22;41912;51.022;3.664;2023-12-14T07:33:13;8.70;99.90
56044;DHT22;41912;51.022;3.664;2023-12-14T07:35:39;8.70;99.90
56044;DHT22;41912;51.022;3.664;2023-12-14T07:38:04;8.60;99.90
56044;DHT22;41912;51.022;3.664;2023-12-14T07:40:30;8.60;99.90
56044;DHT22;41912;51.022;3.664;2023-12-14T07:42:55;8.60;99.90
56044;DHT22;41912;51.022;3.664;2023-12-14T07:45:21;8.60;99.90
56044;DHT22;41912;51.022;3.664;2023-12-14T07:47:47;8.50;99.90
56044;DHT22;41912;51.022;3.664;2023-12-14T07:50:12;8.50;99.90
56044;DHT22;41912;51.022;3.664;2023-12-14T07:52:39;8.40;99.90
56044;DHT22;41912;51.022;3.664;2023-12-14T07:55:05;8.40;99.90
56044;DHT22;41912;51.022;3.664;2023-12-14T07:57:31;8.40;99.90
56044;DHT22;41912;51.022;3.664;2023-12-14T07:59:57;8.40;99.90
56044;DHT22;41912;51.022;3.664;2023-12-14T08:02:23;8.40;99.90
56044;DHT22;41912;51.022;3.664;2023-12-14T08:04:49;8.50;99.90
56044;DHT22;41912;51.022;3.664;2023-12-14T08:07:14;8.50;99.90
56044;DHT22;41912;51.022;3.664;2023-12-14T08:09:40;8.50;99.90
56044;DHT22;41912;51.022;3.664;2023-12-14T08:12:06;8.50;99.90
56044;DHT22;41912;51.022;3.664;2023-12-14T08:14:35;8.50;99.90
56044;DHT22;41912;51.022;3.664;2023-12-14T08:17:03;8.50;99.90
56044;DHT22;41912;51.022;3.664;2023-12-14T08:19:30;8.50;99.90
56044;DHT22;41912;51.022;3.664;2023-12-14T08:21:56;8.60;99.90
56044;DHT22;41912;51.022;3.664;2023-12-14T08:24:21;8.60;99.90
56044;DHT22;41912;51.022;3.664;2023-12-14T08:26:47;8.60;99.90
56044;DHT22;41912;51.022;3.664;2023-12-14T08:29:12;8.60;99.90
56044;DHT22;41912;51.022;3.664;2023-12-14T08:31:38;8.60;99.90
56044;DHT22;41912;51.022;3.664;2023-12-14T08:34:03;8.60;99.90
56044;DHT22;41912;51.022;3.664;2023-12-14T08:36:29;8.60;99.90
56044;DHT22;41912;51.022;3.664;2023-12-14T08:38:57;8.60;99.90
56044;DHT22;41912;51.022;3.664;2023-12-14T08:41:22;8.70;99.90
56044;DHT22;41912;51.022;3.664;2023-12-14T08:43:48;8.60;99.90
56044;DHT22;41912;51.022;3.664;2023-12-14T08:46:13;8.70;99.90
56044;DHT22;41912;51.022;3.664;2023-12-14T08:48:39;8.70;99.90
56044;DHT22;41912;51.022;3.664;2023-12-14T08:51:05;8.70;99.90
56044;DHT22;41912;51.022;3.664;2023-12-14T08:53:31;8.70;99.90
56044;DHT22;41912;51.022;3.664;2023-12-14T08:55:57;8.60;99.90
56044;DHT22;41912;51.022;3.664;2023-12-14T08:58:22;8.60;99.90
56044;DHT22;41912;51.022;3.664;2023-12-14T09:00:48;8.60;99.90
56044;DHT22;41912;51.022;3.664;2023-12-14T09:03:18;8.60;99.90
56044;DHT22;41912;51.022;3.664;2023-12-14T09:05:44;8.60;99.90
56044;DHT22;41912;51.022;3.664;2023-12-14T09:08:10;8.60;99.90
56044;DHT22;41912;51.022;3.664;2023-12-14T09:10:38;8.60;99.90
56044;DHT22;41912;51.022;3.664;2023-12-14T09:13:04;8.60;99.90
56044;DHT22;41912;51.022;3.664;2023-12-14T09:15:33;8.60;99.90
56044;DHT22;41912;51.022;3.664;2023-12-14T09:17:59;8.70;99.90
56044;DHT22;41912;51.022;3.664;2023-12-14T09:20:25;8.70;99.90
56044;DHT22;41912;51.022;3.664;2023-12-14T09:22:51;8.70;99.90
56044;DHT22;41912;51.022;3.664;2023-12-14T09:25:17;8.70;99.90
56044;DHT22;41912;51.022;3.664;2023-12-14T09:27:43;8.70;99.90
56044;DHT22;41912;51.022;3.664;2023-12-14T09:30:09;8.80;99.90
56044;DHT22;41912;51.022;3.664;2023-12-14T09:32:36;8.80;99.90
56044;DHT22;41912;51.022;3.664;2023-12-14T09:35:02;8.80;99.90
56044;DHT22;41912;51.022;3.664;2023-12-14T09:37:27;8.80;99.90
56044;DHT22;41912;51.022;3.664;2023-12-14T09:39:53;8.80;99.90
56044;DHT22;41912;51.022;3.664;2023-12-14T09:42:20;8.80;99.90
56044;DHT22;41912;51.022;3.664;2023-12-14T09:44:47;8.80;99.90
56044;DHT22;41912;51.022;3.664;2023-12-14T09:47:13;8.80;99.90
56044;DHT22;41912;51.022;3.664;2023-12-14T09:49:40;8.90;99.90
56044;DHT22;41912;51.022;3.664;2023-12-14T09:52:08;8.80;99.90
56044;DHT22;41912;51.022;3.664;2023-12-14T09:54:34;8.80;99.90
56044;DHT22;41912;51.022;3.664;2023-12-14T09:57:00;8.80;99.90
56044;DHT22;41912;51.022;3.664;2023-12-14T09:59:25;8.80;99.90
56044;DHT22;41912;51.022;3.664;2023-12-14T10:01:51;8.80;99.90
56044;DHT22;41912;51.022;3.664;2023-12-14T10:04:18;8.80;99.90
56044;DHT22;41912;51.022;3.664;2023-12-14T10:06:46;8.80;99.90
56044;DHT22;41912;51.022;3.664;2023-12-14T10:09:13;8.80;99.90
56044;DHT22;41912;51.022;3.664;2023-12-14T10:11:41;8.80;99.90
56044;DHT22;41912;51.022;3.664;2023-12-14T10:14:24;8.80;99.90
56044;DHT22;41912;51.022;3.664;2023-12-14T10:16:52;8.90;99.90
56044;DHT22;41912;51.022;3.664;2023-12-14T10:19:18;8.80;99.90
56044;DHT22;41912;51.022;3.664;2023-12-14T10:21:46;8.90;99.90
56044;DHT22;41912;51.022;3.664;2023-12-14T10:24:13;8.90;99.90
56044;DHT22;41912;51.022;3.664;2023-12-14T10:26:38;8.90;99.90
56044;DHT22;41912;51.022;3.664;2023-12-14T10:29:04;8.90;99.90
56044;DHT22;41912;51.022;3.664;2023-12-14T10:31:33;8.90;99.90
56044;DHT22;41912;51.022;3.664;2023-12-14T10:34:03;8.90;99.90
56044;DHT22;41912;51.022;3.664;2023-12-14T10:36:30;9.00;99.90
56044;DHT22;41912;51.022;3.664;2023-12-14T10:38:57;9.00;99.90
56044;DHT22;41912;51.022;3.664;2023-12-14T10:41:24;9.00;99.90
56044;DHT22;41912;51.022;3.664;2023-12-14T10:43:54;9.00;99.90
56044;DHT22;41912;51.022;3.664;2023-12-14T10:46:20;9.00;99.90
56044;DHT22;41912;51.022;3.664;2023-12-14T10:48:48;9.10;99.90
56044;DHT22;41912;51.022;3.664;2023-12-14T10:51:15;9.10;99.90
56044;DHT22;41912;51.022;3.664;2023-12-14T10:53:44;9.20;99.90
56044;DHT22;41912;51.022;3.664;2023-12-14T10:56:13;9.20;99.90
56044;DHT22;41912;51.022;3.664;2023-12-14T10:58:56;9.10;99.90
56044;DHT22;41912;51.022;3.664;2023-12-14T11:01:23;9.10;99.90
56044;DHT22;41912;51.022;3.664;2023-12-14T11:03:53;9.10;99.90
56044;DHT22;41912;51.022;3.664;2023-12-14T11:06:31;9.10;99.90
56044;DHT22;41912;51.022;3.664;2023-12-14T11:09:04;9.10;99.90
56044;DHT22;41912;51.022;3.664;2023-12-14T11:14:12;9.10;99.90
56044;DHT22;41912;51.022;3.664;2023-12-14T11:16:44;9.20;99.90
56044;DHT22;41912;51.022;3.664;2023-12-14T11:24:35;9.20;99.90
56044;DHT22;41912;51.022;3.664;2023-12-14T11:27:11;9.20;99.90
56044;DHT22;41912;51.022;3.664;2023-12-14T11:29:37;9.30;99.90
56044;DHT22;41912;51.022;3.664;2023-12-14T11:32:06;9.30;99.90
56044;DHT22;41912;51.022;3.664;2023-12-14T11:34:32;9.30;99.90
56044;DHT22;41912;51.022;3.664;2023-12-14T11:36:58;9.30;99.90
56044;DHT22;41912;51.022;3.664;2023-12-14T11:39:24;9.30;99.90
56044;DHT22;41912;51.022;3.664;2023-12-14T11:42:02;9.30;99.90
56044;DHT22;41912;51.022;3.664;2023-12-14T11:44:28;9.30;99.90
56044;DHT22;41912;51.022;3.664;2023-12-14T11:46:54;9.30;99.90
56044;DHT22;41912;51.022;3.664;2023-12-14T11:49:19;9.40;99.90
56044;DHT22;41912;51.022;3.664;2023-12-14T11:51:51;9.30;99.90
56044;DHT22;41912;51.022;3.664;2023-12-14T11:54:17;9.40;99.90
56044;DHT22;41912;51.022;3.664;2023-12-14T11:56:50;9.30;99.90
56044;DHT22;41912;51.022;3.664;2023-12-14T11:59:16;9.40;99.90
56044;DHT22;41912;51.022;3.664;2023-12-14T12:01:56;9.40;99.90
56044;DHT22;41912;51.022;3.664;2023-12-14T12:04:23;9.40;99.90
56044;DHT22;41912;51.022;3.664;2023-12-14T12:06:48;9.30;99.90
56044;DHT22;41912;51.022;3.664;2023-12-14T12:09:33;9.40;99.90
56044;DHT22;41912;51.022;3.664;2023-12-14T12:11:58;9.30;99.90
56044;DHT22;41912;51.022;3.664;2023-12-14T12:14:24;9.30;99.90
56044;DHT22;41912;51.022;3.664;2023-12-14T12:16:50;9.40;99.90
56044;DHT22;41912;51.022;3.664;2023-12-14T12:19:18;9.40;99.90
56044;DHT22;41912;51.022;3.664;2023-12-14T12:21:43;9.40;99.90
56044;DHT22;41912;51.022;3.664;2023-12-14T12:24:09;9.40;99.90
56044;DHT22;41912;51.022;3.664;2023-12-14T12:26:35;9.40;99.90
56044;DHT22;41912;51.022;3.664;2023-12-14T12:29:00;9.40;99.90
56044;DHT22;41912;51.022;3.664;2023-12-14T12:31:27;9.50;99.90
56044;DHT22;41912;51.022;3.664;2023-12-14T12:33:52;9.50;99.90
56044;DHT22;41912;51.022;3.664;2023-12-14T12:36:18;9.50;99.90
56044;DHT22;41912;51.022;3.664;2023-12-14T12:38:44;9.50;99.90
56044;DHT22;41912;51.022;3.664;2023-12-14T12:41:09;9.50;99.90
56044;DHT22;41912;51.022;3.664;2023-12-14T12:43:35;9.50;99.90
56044;DHT22;41912;51.022;3.664;2023-12-14T12:46:01;9.50;99.90
56044;DHT22;41912;51.022;3.664;2023-12-14T12:48:27;9.50;99.90
56044;DHT22;41912;51.022;3.664;2023-12-14T12:50:53;9.60;99.90
56044;DHT22;41912;51.022;3.664;2023-12-14T12:53:18;9.60;99.90
56044;DHT22;41912;51.022;3.664;2023-12-14T12:55:44;9.60;99.90
56044;DHT22;41912;51.022;3.664;2023-12-14T12:58:10;9.70;99.90
56044;DHT22;41912;51.022;3.664;2023-12-14T13:00:35;9.70;99.90
56044;DHT22;41912;51.022;3.664;2023-12-14T13:03:03;9.70;99.90
56044;DHT22;41912;51.022;3.664;2023-12-14T13:05:29;9.70;99.90
56044;DHT22;41912;51.022;3.664;2023-12-14T13:07:54;9.70;99.90
56044;DHT22;41912;51.022;3.664;2023-12-14T13:10:20;9.70;99.90
56044;DHT22;41912;51.022;3.664;2023-12-14T13:12:50;9.70;99.90
56044;DHT22;41912;51.022;3.664;2023-12-14T13:15:16;9.70;99.90
56044;DHT22;41912;51.022;3.664;2023-12-14T13:17:41;9.70;99.90
56044;DHT22;41912;51.022;3.664;2023-12-14T13:20:07;9.60;99.90
56044;DHT22;41912;51.022;3.664;2023-12-14T13:22:34;9.60;99.90
56044;DHT22;41912;51.022;3.664;2023-12-14T13:24:59;9.70;99.90
56044;DHT22;41912;51.022;3.664;2023-12-14T13:27:25;9.60;99.90
56044;DHT22;41912;51.022;3.664;2023-12-14T13:29:51;9.60;99.90
56044;DHT22;41912;51.022;3.664;2023-12-14T13:32:16;9.60;99.90
56044;DHT22;41912;51.022;3.664;2023-12-14T13:34:42;9.60;99.90
56044;DHT22;41912;51.022;3.664;2023-12-14T13:37:08;9.50;99.90
56044;DHT22;41912;51.022;3.664;2023-12-14T13:39:35;9.60;99.90
56044;DHT22;41912;51.022;3.664;2023-12-14T13:42:04;9.60;99.90
56044;DHT22;41912;51.022;3.664;2023-12-14T13:44:32;9.60;99.90
56044;DHT22;41912;51.022;3.664;2023-12-14T13:47:03;9.60;99.90
56044;DHT22;41912;51.022;3.664;2023-12-14T13:49:29;9.60;99.90
56044;DHT22;41912;51.022;3.664;2023-12-14T13:51:54;9.60;99.90
56044;DHT22;41912;51.022;3.664;2023-12-14T13:54:20;9.60;99.90
56044;DHT22;41912;51.022;3.664;2023-12-14T13:56:45;9.60;99.90
56044;DHT22;41912;51.022;3.664;2023-12-14T13:59:11;9.60;99.90
56044;DHT22;41912;51.022;3.664;2023-12-14T14:01:37;9.60;99.90
56044;DHT22;41912;51.022;3.664;2023-12-14T14:04:03;9.60;99.90
56044;DHT22;41912;51.022;3.664;2023-12-14T14:06:29;9.60;99.90
56044;DHT22;41912;51.022;3.664;2023-12-14T14:08:55;9.60;99.90
56044;DHT22;41912;51.022;3.664;2023-12-14T14:11:21;9.50;99.90
56044;DHT22;41912;51.022;3.664;2023-12-14T14:13:48;9.50;99.90
56044;DHT22;41912;51.022;3.664;2023-12-14T14:16:14;9.50;99.90
56044;DHT22;41912;51.022;3.664;2023-12-14T14:18:39;9.60;99.90
56044;DHT22;41912;51.022;3.664;2023-12-14T14:21:05;9.60;99.90
56044;DHT22;41912;51.022;3.664;2023-12-14T14:23:34;9.50;99.90
56044;DHT22;41912;51.022;3.664;2023-12-14T14:26:00;9.50;99.90
56044;DHT22;41912;51.022;3.664;2023-12-14T14:28:25;9.50;99.90
56044;DHT22;41912;51.022;3.664;2023-12-14T14:30:51;9.60;99.90
56044;DHT22;41912;51.022;3.664;2023-12-14T14:33:17;9.60;99.90
56044;DHT22;41912;51.022;3.664;2023-12-14T14:35:46;9.60;99.90
56044;DHT22;41912;51.022;3.664;2023-12-14T14:38:13;9.60;99.90
56044;DHT22;41912;51.022;3.664;2023-12-14T14:40:39;9.60;99.90
56044;DHT22;41912;51.022;3.664;2023-12-14T14:43:04;9.60;99.90
56044;DHT22;41912;51.022;3.664;2023-12-14T14:45:30;9.50;99.90
56044;DHT22;41912;51.022;3.664;2023-12-14T14:47:56;9.50;99.90
56044;DHT22;41912;51.022;3.664;2023-12-14T14:50:22;9.50;99.90
56044;DHT22;41912;51.022;3.664;2023-12-14T14:52:47;9.50;99.90
56044;DHT22;41912;51.022;3.664;2023-12-14T14:55:14;9.20;99.90
56044;DHT22;41912;51.022;3.664;2023-12-14T14:57:40;9.50;99.90
56044;DHT22;41912;51.022;3.664;2023-12-14T15:00:07;9.50;99.90
56044;DHT22;41912;51.022;3.664;2023-12-14T15:02:33;9.40;99.90
56044;DHT22;41912;51.022;3.664;2023-12-14T15:04:58;9.40;99.90
56044;DHT22;41912;51.022;3.664;2023-12-14T15:07:24;9.40;99.90
56044;DHT22;41912;51.022;3.664;2023-12-14T15:09:50;9.40;99.90
56044;DHT22;41912;51.022;3.664;2023-12-14T15:12:15;9.50;99.90
56044;DHT22;41912;51.022;3.664;2023-12-14T15:14:41;9.40;99.90
56044;DHT22;41912;51.022;3.664;2023-12-14T15:17:07;9.40;99.90
56044;DHT22;41912;51.022;3.664;2023-12-14T15:19:32;9.40;99.90
56044;DHT22;41912;51.022;3.664;2023-12-14T15:21:58;9.40;99.90
56044;DHT22;41912;51.022;3.664;2023-12-14T15:24:24;9.40;99.90
56044;DHT22;41912;51.022;3.664;2023-12-14T15:26:49;9.40;99.90
56044;DHT22;41912;51.022;3.664;2023-12-14T15:29:15;9.40;99.90
56044;DHT22;41912;51.022;3.664;2023-12-14T15:31:41;9.40;99.90
56044;DHT22;41912;51.022;3.664;2023-12-14T15:34:07;9.40;99.90
56044;DHT22;41912;51.022;3.664;2023-12-14T15:36:33;9.40;99.90
56044;DHT22;41912;51.022;3.664;2023-12-14T15:39:02;9.40;99.90
56044;DHT22;41912;51.022;3.664;2023-12-14T15:41:29;9.30;99.90
56044;DHT22;41912;51.022;3.664;2023-12-14T15:43:55;9.30;99.90
56044;DHT22;41912;51.022;3.664;2023-12-14T15:46:21;9.40;99.90